createdAt,value
2019-02-18T00:01:05.499Z,4.60
2019-02-18T00:03:48.696Z,4.60
2019-02-18T00:06:31.777Z,4.50
2019-02-18T00:09:14.623Z,4.50
2019-02-18T00:11:57.898Z,4.50
2019-02-18T00:14:41.065Z,4.50
2019-02-18T00:17:25.288Z,4.40
2019-02-18T00:20:10.431Z,4.40
2019-02-18T00:22:53.737Z,4.40
2019-02-18T00:25:36.328Z,4.40
2019-02-18T00:28:19.932Z,4.30
2019-02-18T00:31:02.529Z,4.30
2019-02-18T00:33:46.477Z,4.30
2019-02-18T00:36:29.837Z,4.20
2019-02-18T00:39:13.168Z,4.20
2019-02-18T00:41:55.825Z,4.20
2019-02-18T00:44:38.528Z,4.20
2019-02-18T00:47:23.404Z,4.20
2019-02-18T00:50:10.073Z,4.20
2019-02-18T00:52:53.203Z,4.10
2019-02-18T00:55:35.748Z,4.10
2019-02-18T00:58:18.389Z,4.10
2019-02-18T01:01:01.560Z,4.00
2019-02-18T01:03:48.264Z,4.00
2019-02-18T01:06:30.958Z,3.90
2019-02-18T01:09:15.403Z,3.90
2019-02-18T01:11:58.864Z,3.90
2019-02-18T01:14:43.954Z,3.80
2019-02-18T01:17:27.188Z,3.80
2019-02-18T01:20:10.017Z,3.80
2019-02-18T01:22:53.515Z,3.80
2019-02-18T01:25:36.894Z,3.80
2019-02-18T01:28:20.900Z,3.70
2019-02-18T01:31:05.625Z,3.70
2019-02-18T01:33:48.548Z,3.70
2019-02-18T01:36:31.952Z,3.60
2019-02-18T01:39:17.362Z,3.60
2019-02-18T01:41:59.924Z,3.60
2019-02-18T01:44:44.258Z,3.50
2019-02-18T01:47:29.687Z,3.50
2019-02-18T01:50:12.402Z,3.40
2019-02-18T01:52:56.718Z,3.40
2019-02-18T01:55:39.307Z,3.40
2019-02-18T01:58:22.458Z,3.30
2019-02-18T02:01:05.856Z,3.30
2019-02-18T02:03:49.289Z,3.30
2019-02-18T02:06:33.545Z,3.30
2019-02-18T02:09:18.172Z,3.30
2019-02-18T02:12:00.808Z,3.20
2019-02-18T02:14:43.645Z,3.20
2019-02-18T02:17:26.277Z,3.20
2019-02-18T02:20:11.100Z,3.20
2019-02-18T02:22:53.740Z,3.20
2019-02-18T02:25:36.505Z,3.20
2019-02-18T02:28:20.652Z,3.10
2019-02-18T02:31:05.762Z,3.10
2019-02-18T02:33:49.721Z,3.10
2019-02-18T02:36:34.976Z,3.10
2019-02-18T02:39:17.471Z,3.10
2019-02-18T02:42:00.977Z,3.00
2019-02-18T02:44:44.016Z,3.00
2019-02-18T02:47:27.359Z,3.00
2019-02-18T02:50:09.959Z,3.00
2019-02-18T02:52:55.013Z,3.00
2019-02-18T02:55:38.229Z,3.00
2019-02-18T02:58:20.951Z,3.00
2019-02-18T03:01:03.460Z,3.00
2019-02-18T03:03:46.630Z,2.90
2019-02-18T03:06:32.077Z,2.90
2019-02-18T03:09:14.707Z,2.80
2019-02-18T03:11:58.958Z,2.90
2019-02-18T03:14:44.183Z,2.80
2019-02-18T03:17:27.863Z,2.80
2019-02-18T03:20:10.794Z,2.80
2019-02-18T03:22:54.026Z,2.80
2019-02-18T03:25:40.621Z,2.70
2019-02-18T03:28:23.605Z,2.80
2019-02-18T03:31:06.525Z,2.80
2019-02-18T03:33:50.590Z,2.70
2019-02-18T03:36:33.425Z,2.60
2019-02-18T03:39:17.492Z,2.60
2019-02-18T03:42:00.700Z,2.50
2019-02-18T03:44:44.000Z,2.40
2019-02-18T03:47:26.667Z,2.40
2019-02-18T03:50:11.532Z,2.40
2019-02-18T03:52:54.859Z,2.40
2019-02-18T03:55:38.066Z,2.40
2019-02-18T03:58:21.296Z,2.40
2019-02-18T04:01:04.970Z,2.40
2019-02-18T04:03:48.009Z,2.40
2019-02-18T04:06:31.183Z,2.40
2019-02-18T04:09:13.760Z,2.30
2019-02-18T04:11:58.060Z,2.30
2019-02-18T04:14:41.249Z,2.30
2019-02-18T04:17:24.724Z,2.30
2019-02-18T04:20:09.545Z,2.20
2019-02-18T04:22:53.062Z,2.10
2019-02-18T04:25:38.113Z,2.10
2019-02-18T04:28:23.056Z,2.10
2019-02-18T04:31:06.397Z,2.00
2019-02-18T04:33:49.243Z,2.10
2019-02-18T04:36:33.803Z,2.10
2019-02-18T04:39:17.161Z,2.00
2019-02-18T04:42:02.548Z,2.20
2019-02-18T04:44:45.265Z,2.00
2019-02-18T04:47:29.867Z,2.00
2019-02-18T04:50:12.519Z,2.00
2019-02-18T04:52:56.536Z,2.00
2019-02-18T04:55:39.936Z,2.00
2019-02-18T04:58:22.767Z,2.00
2019-02-18T05:01:06.160Z,2.00
2019-02-18T05:03:49.617Z,2.00
2019-02-18T05:06:33.205Z,2.00
2019-02-18T05:09:16.094Z,1.90
2019-02-18T05:11:58.984Z,1.90
2019-02-18T05:14:42.828Z,2.00
2019-02-18T05:17:27.818Z,2.00
2019-02-18T05:20:11.164Z,2.00
2019-02-18T05:22:54.071Z,1.90
2019-02-18T05:25:37.681Z,1.90
2019-02-18T05:28:21.130Z,1.90
2019-02-18T05:31:04.988Z,1.90
2019-02-18T05:33:48.682Z,1.90
2019-02-18T05:36:31.769Z,1.90
2019-02-18T05:39:17.943Z,1.90
2019-02-18T05:41:59.532Z,1.80
2019-02-18T05:44:43.997Z,1.80
2019-02-18T05:47:26.536Z,1.80
2019-02-18T05:50:15.692Z,1.80
2019-02-18T05:53:00.359Z,1.80
2019-02-18T05:55:43.984Z,1.80
2019-02-18T05:58:26.808Z,1.80
2019-02-18T06:01:10.292Z,1.80
2019-02-18T06:03:53.164Z,1.90
2019-02-18T06:06:36.091Z,1.90
2019-02-18T06:09:29.087Z,1.90
2019-02-18T06:12:04.115Z,1.90
2019-02-18T06:14:47.392Z,2.00
2019-02-18T06:17:30.481Z,1.90
2019-02-18T06:20:13.759Z,2.00
2019-02-18T06:22:56.934Z,2.00
2019-02-18T06:25:39.504Z,2.10
2019-02-18T06:28:23.975Z,2.20
2019-02-18T06:31:06.546Z,2.30
2019-02-18T06:36:33.240Z,2.60
2019-02-18T06:39:16.096Z,2.70
2019-02-18T06:41:58.813Z,2.90
2019-02-18T06:44:48.139Z,3.10
2019-02-18T06:47:31.141Z,3.20
2019-02-18T06:50:14.333Z,3.30
2019-02-18T06:52:57.432Z,3.40
2019-02-18T06:55:40.057Z,3.50
2019-02-18T06:58:23.489Z,3.60
2019-02-18T07:04:31.902Z,3.80
2019-02-18T07:07:35.703Z,4.00
2019-02-18T07:10:27.848Z,4.20
2019-02-18T07:13:10.397Z,4.50
2019-02-18T07:15:53.801Z,4.70
2019-02-18T07:18:36.944Z,5.00
2019-02-18T07:21:20.326Z,5.30
2019-02-18T07:24:04.952Z,5.60
2019-02-18T07:26:47.540Z,5.90
2019-02-18T07:29:31.069Z,6.10
2019-02-18T07:35:22.266Z,6.60
2019-02-18T07:38:05.370Z,6.80
2019-02-18T07:40:48.842Z,7.00
2019-02-18T07:43:33.661Z,7.10
2019-02-18T07:46:20.483Z,7.30
2019-02-18T07:49:03.277Z,7.40
2019-02-18T07:51:46.223Z,7.50
2019-02-18T07:54:29.503Z,7.60
2019-02-18T07:57:12.475Z,7.70
2019-02-18T07:59:57.544Z,7.80
2019-02-18T08:02:40.369Z,8.00
2019-02-18T08:05:23.249Z,8.10
2019-02-18T08:08:07.351Z,8.20
2019-02-18T08:10:49.943Z,8.30
2019-02-18T08:13:32.564Z,8.40
2019-02-18T08:16:15.380Z,8.60
2019-02-18T08:18:58.847Z,8.80
2019-02-18T08:24:24.096Z,9.40
2019-02-18T08:27:07.538Z,9.70
2019-02-18T08:29:51.005Z,10.20
2019-02-18T08:32:33.512Z,10.80
2019-02-18T08:35:17.545Z,11.70
2019-02-18T08:38:00.229Z,13.00
2019-02-18T08:40:43.195Z,13.50
2019-02-18T08:43:26.326Z,14.80
2019-02-18T08:46:09.731Z,15.60
2019-02-18T08:48:53.222Z,16.10
2019-02-18T08:51:36.586Z,17.30
2019-02-18T08:54:19.893Z,18.90
2019-02-18T08:57:05.399Z,20.90
2019-02-18T08:59:50.421Z,23.00
2019-02-18T09:02:33.593Z,24.40
2019-02-18T09:05:17.042Z,24.90
2019-02-18T09:07:59.864Z,24.80
2019-02-18T09:10:43.086Z,24.80
2019-02-18T09:13:25.652Z,25.00
2019-02-18T09:18:50.615Z,26.40
2019-02-18T09:21:35.812Z,27.60
2019-02-18T09:24:25.000Z,29.20
2019-02-18T09:27:08.400Z,30.60
2019-02-18T09:29:51.354Z,31.30
2019-02-18T09:32:34.420Z,32.50
2019-02-18T09:35:17.361Z,33.90
2019-02-18T09:38:00.313Z,34.80
2019-02-18T09:40:50.478Z,35.30
2019-02-18T09:43:30.144Z,36.20
2019-02-18T09:46:13.791Z,36.80
2019-02-18T09:48:57.269Z,36.90
2019-02-18T09:51:41.193Z,37.60
2019-02-18T09:54:24.620Z,38.60
2019-02-18T09:57:07.712Z,39.50
2019-02-18T09:59:51.105Z,40.00
2019-02-18T10:02:35.195Z,40.40
2019-02-18T10:05:18.125Z,39.80
2019-02-18T10:08:02.460Z,39.40
2019-02-18T10:10:55.442Z,38.90
2019-02-18T10:13:33.651Z,37.90
2019-02-18T10:16:18.730Z,38.30
2019-02-18T10:19:02.229Z,38.60
2019-02-18T10:21:45.173Z,38.40
2019-02-18T10:24:27.673Z,38.70
2019-02-18T10:27:13.140Z,39.30
2019-02-18T10:29:56.264Z,40.10
2019-02-18T10:32:38.772Z,40.00
2019-02-18T10:35:22.005Z,39.90
2019-02-18T10:38:07.117Z,39.20
2019-02-18T10:40:51.704Z,38.90
2019-02-18T10:43:34.725Z,38.50
2019-02-18T10:46:17.601Z,37.10
2019-02-18T10:49:01.092Z,35.70
2019-02-18T10:51:45.041Z,34.50
2019-02-18T10:54:28.000Z,33.80
2019-02-18T10:57:11.662Z,33.70
2019-02-18T10:59:54.540Z,34.50
2019-02-18T11:02:38.009Z,35.80
2019-02-18T11:05:21.191Z,37.10
2019-02-18T11:08:03.794Z,38.40
2019-02-18T11:10:46.532Z,39.60
2019-02-18T11:13:30.909Z,40.40
2019-02-18T11:16:14.899Z,40.80
2019-02-18T11:18:58.414Z,40.60
2019-02-18T11:21:41.713Z,39.50
2019-02-18T11:24:24.613Z,38.40
2019-02-18T11:27:11.138Z,37.20
2019-02-18T11:29:55.674Z,36.50
2019-02-18T11:32:40.755Z,37.10
2019-02-18T11:35:26.259Z,37.80
2019-02-18T11:38:09.016Z,38.30
2019-02-18T11:40:52.756Z,38.80
2019-02-18T11:43:36.295Z,39.50
2019-02-18T11:46:21.571Z,40.30
2019-02-18T11:49:04.568Z,41.00
2019-02-18T11:51:49.333Z,41.40
2019-02-18T11:54:33.646Z,41.90
2019-02-18T11:57:16.523Z,42.60
2019-02-18T12:00:02.749Z,43.30
2019-02-18T12:02:48.817Z,43.50
2019-02-18T12:05:32.246Z,43.70
2019-02-18T12:08:15.359Z,43.80
2019-02-18T12:10:59.006Z,43.90
2019-02-18T12:13:41.966Z,43.70
2019-02-18T12:16:25.022Z,42.60
2019-02-18T12:19:08.140Z,41.80
2019-02-18T12:21:52.241Z,41.60
2019-02-18T12:24:39.173Z,41.90
2019-02-18T12:27:23.091Z,42.10
2019-02-18T12:30:06.007Z,42.10
2019-02-18T12:32:49.116Z,42.30
2019-02-18T12:35:33.896Z,42.50
2019-02-18T12:38:17.419Z,42.40
2019-02-18T12:41:02.229Z,42.20
2019-02-18T12:43:45.739Z,42.10
2019-02-18T12:46:30.996Z,41.80
2019-02-18T12:49:15.810Z,41.40
2019-02-18T12:51:59.637Z,40.70
2019-02-18T12:54:43.538Z,40.60
2019-02-18T12:57:26.674Z,40.60
2019-02-18T13:00:10.567Z,40.30
2019-02-18T13:05:36.529Z,39.10
2019-02-18T13:08:19.751Z,38.00
2019-02-18T13:11:02.461Z,36.60
2019-02-18T13:13:46.374Z,35.80
2019-02-18T13:16:29.832Z,35.40
2019-02-18T13:19:14.088Z,34.60
2019-02-18T13:21:57.432Z,32.80
2019-02-18T13:24:42.236Z,30.90
2019-02-18T13:27:27.699Z,28.80
2019-02-18T13:30:12.392Z,27.00
2019-02-18T13:35:38.045Z,24.20
2019-02-18T13:38:21.707Z,23.50
2019-02-18T13:41:06.476Z,22.70
2019-02-18T13:43:49.668Z,22.20
2019-02-18T13:46:34.865Z,21.70
2019-02-18T13:49:21.499Z,21.20
2019-02-18T13:52:04.521Z,20.50
2019-02-18T13:54:47.760Z,20.10
2019-02-18T13:57:30.429Z,19.80
2019-02-18T14:00:17.977Z,19.70
2019-02-18T14:03:00.531Z,19.50
2019-02-18T14:05:43.267Z,19.30
2019-02-18T14:08:28.548Z,19.00
2019-02-18T14:11:11.327Z,18.80
2019-02-18T14:13:56.216Z,18.50
2019-02-18T14:16:38.848Z,18.20
2019-02-18T14:19:21.691Z,17.90
2019-02-18T14:22:05.900Z,17.70
2019-02-18T14:24:49.713Z,17.50
2019-02-18T14:27:36.276Z,17.30
2019-02-18T14:30:18.857Z,17.30
2019-02-18T14:33:03.553Z,17.20
2019-02-18T14:35:50.392Z,17.20
2019-02-18T14:38:33.824Z,17.10
2019-02-18T14:41:19.337Z,17.00
2019-02-18T14:44:02.060Z,17.00
2019-02-18T14:46:45.769Z,17.00
2019-02-18T14:49:28.360Z,16.90
2019-02-18T14:52:12.036Z,16.80
2019-02-18T14:54:55.072Z,16.80
2019-02-18T14:57:39.228Z,16.80
2019-02-18T15:00:23.076Z,16.80
2019-02-18T15:03:06.071Z,16.80
2019-02-18T15:05:49.006Z,16.80
2019-02-18T15:08:31.587Z,16.70
2019-02-18T15:11:17.566Z,16.50
2019-02-18T15:14:02.755Z,16.20
2019-02-18T15:16:45.745Z,15.90
2019-02-18T15:19:28.912Z,15.60
2019-02-18T15:22:13.373Z,15.40
2019-02-18T15:24:56.545Z,15.20
2019-02-18T15:27:39.280Z,15.10
2019-02-18T15:30:22.372Z,15.00
2019-02-18T15:33:05.448Z,14.80
2019-02-18T15:35:48.780Z,14.80
2019-02-18T15:38:35.613Z,14.60
2019-02-18T15:41:18.337Z,14.60
2019-02-18T15:44:01.753Z,14.50
2019-02-18T15:46:44.626Z,14.30
2019-02-18T15:49:27.728Z,14.30
2019-02-18T15:52:10.865Z,14.10
2019-02-18T15:54:53.497Z,14.00
2019-02-18T15:57:36.977Z,14.00
2019-02-18T16:00:20.108Z,13.90
2019-02-18T16:03:03.861Z,13.90
2019-02-18T16:05:49.337Z,13.80
2019-02-18T16:08:31.995Z,13.80
2019-02-18T16:11:15.001Z,13.80
2019-02-18T16:13:57.693Z,13.70
2019-02-18T16:16:42.125Z,13.70
2019-02-18T16:19:26.773Z,13.60
2019-02-18T16:22:11.243Z,13.50
2019-02-18T16:24:54.865Z,13.50
2019-02-18T16:27:40.406Z,13.40
2019-02-18T16:30:23.837Z,13.30
2019-02-18T16:33:06.709Z,13.30
2019-02-18T16:35:49.700Z,13.20
2019-02-18T16:38:32.798Z,13.20
2019-02-18T16:41:15.448Z,13.10
2019-02-18T16:43:59.425Z,13.00
2019-02-18T16:46:44.365Z,13.00
2019-02-18T16:49:29.445Z,12.90
2019-02-18T16:52:12.560Z,12.70
2019-02-18T16:54:56.513Z,12.60
2019-02-18T16:57:40.040Z,12.40
2019-02-18T17:00:26.871Z,12.40
2019-02-18T17:03:09.520Z,12.30
2019-02-18T17:05:53.033Z,12.30
2019-02-18T17:08:36.453Z,12.20
2019-02-18T17:11:20.276Z,12.10
2019-02-18T17:14:07.021Z,11.90
2019-02-18T17:16:49.645Z,11.80
2019-02-18T17:19:34.137Z,11.70
2019-02-18T17:22:19.854Z,11.50
2019-02-18T17:25:03.456Z,11.30
2019-02-18T17:27:46.525Z,11.20
2019-02-18T17:30:29.768Z,11.10
2019-02-18T17:33:12.781Z,11.10
2019-02-18T17:35:56.462Z,11.00
2019-02-18T17:38:39.893Z,11.00
2019-02-18T17:41:23.579Z,10.90
2019-02-18T17:44:06.750Z,10.80
2019-02-18T17:46:49.451Z,10.80
2019-02-18T17:49:32.497Z,10.80
2019-02-18T17:52:15.422Z,10.80
2019-02-18T17:55:00.648Z,10.80
2019-02-18T17:57:45.690Z,10.80
2019-02-18T18:00:32.308Z,10.80
2019-02-18T18:03:15.728Z,10.80
2019-02-18T18:05:58.766Z,10.80
2019-02-18T18:08:41.597Z,10.70
2019-02-18T18:11:26.945Z,10.70
2019-02-18T18:14:12.301Z,10.70
2019-02-18T18:16:55.275Z,10.60
2019-02-18T18:19:38.211Z,10.60
2019-02-18T18:22:20.873Z,10.50
2019-02-18T18:25:04.904Z,10.50
2019-02-18T18:27:48.121Z,10.50
2019-02-18T18:30:31.937Z,10.40
2019-02-18T18:33:15.128Z,10.40
2019-02-18T18:35:59.324Z,10.30
2019-02-18T18:38:44.437Z,10.30
2019-02-18T18:41:28.458Z,10.20
2019-02-18T18:44:14.582Z,10.10
2019-02-18T18:46:57.588Z,9.90
2019-02-18T18:49:43.039Z,9.80
2019-02-18T18:52:25.723Z,9.80
2019-02-18T18:55:11.012Z,9.70
2019-02-18T18:57:55.916Z,9.60
2019-02-18T19:00:38.757Z,9.50
2019-02-18T19:03:21.893Z,9.40
2019-02-18T19:06:08.463Z,9.40
2019-02-18T19:08:51.312Z,9.40
2019-02-18T19:11:36.382Z,9.40
2019-02-18T19:14:19.017Z,9.40
2019-02-18T19:17:04.728Z,9.30
2019-02-18T19:19:47.866Z,9.30
2019-02-18T19:22:31.025Z,9.30
2019-02-18T19:25:13.885Z,9.30
2019-02-18T19:27:56.614Z,9.30
2019-02-18T19:30:39.953Z,9.30
2019-02-18T19:33:22.905Z,9.20
2019-02-18T19:36:06.332Z,9.30
2019-02-18T19:38:49.514Z,9.20
2019-02-18T19:41:32.688Z,9.20
2019-02-18T19:44:16.218Z,9.20
2019-02-18T19:46:59.088Z,9.20
2019-02-18T19:52:27.075Z,9.00
2019-02-18T19:55:12.064Z,9.00
2019-02-18T19:57:55.483Z,9.00
2019-02-18T20:00:41.460Z,8.90
2019-02-18T20:03:26.360Z,8.90
2019-02-18T20:06:09.872Z,8.90
2019-02-18T20:08:52.776Z,8.90
2019-02-18T20:11:36.536Z,8.90
2019-02-18T20:14:21.611Z,8.80
2019-02-18T20:17:05.133Z,8.90
2019-02-18T20:19:48.175Z,8.80
2019-02-18T20:22:31.593Z,8.80
2019-02-18T20:25:14.281Z,8.70
2019-02-18T20:27:57.138Z,8.70
2019-02-18T20:30:42.089Z,8.70
2019-02-18T20:33:24.664Z,8.60
2019-02-18T20:36:08.131Z,8.50
2019-02-18T20:38:51.285Z,8.50
2019-02-18T20:41:36.761Z,8.40
2019-02-18T20:44:20.055Z,8.30
2019-02-18T20:47:03.086Z,8.30
2019-02-18T20:49:34.937Z,8.30
2019-02-18T20:52:17.613Z,8.10
2019-02-18T20:55:03.098Z,8.10
2019-02-18T20:57:46.343Z,8.10
2019-02-18T21:00:29.945Z,8.00
2019-02-18T21:03:13.716Z,8.00
2019-02-18T21:05:58.029Z,8.00
2019-02-18T21:08:41.429Z,7.90
2019-02-18T21:11:24.743Z,7.80
2019-02-18T21:14:14.346Z,7.70
2019-02-18T21:16:52.558Z,7.70
2019-02-18T21:19:38.542Z,7.60
2019-02-18T21:22:23.053Z,7.50
2019-02-18T21:25:06.393Z,7.50
2019-02-18T21:27:51.388Z,7.40
2019-02-18T21:30:34.352Z,7.30
2019-02-18T21:33:17.434Z,7.30
2019-02-18T21:36:01.471Z,7.20
2019-02-18T21:38:47.127Z,7.10
2019-02-18T21:41:31.721Z,7.00
2019-02-18T21:44:24.674Z,7.00
2019-02-18T21:47:01.341Z,7.00
2019-02-18T21:49:44.280Z,7.00
2019-02-18T21:52:26.993Z,7.00
2019-02-18T21:55:10.161Z,7.00
2019-02-18T21:57:53.364Z,6.80
2019-02-18T22:00:36.759Z,6.70
2019-02-18T22:03:19.770Z,6.70
2019-02-18T22:06:02.820Z,6.70
2019-02-18T22:08:45.857Z,6.60
2019-02-18T22:11:28.507Z,6.50
2019-02-18T22:14:12.396Z,6.50
2019-02-18T22:16:57.457Z,6.40
2019-02-18T22:19:43.028Z,6.30
2019-02-18T22:22:27.021Z,6.40
2019-02-18T22:25:10.452Z,6.40
2019-02-18T22:27:53.217Z,6.20
2019-02-18T22:30:36.321Z,6.10
2019-02-18T22:33:19.625Z,6.10
2019-02-18T22:36:02.803Z,6.10
2019-02-18T22:38:46.105Z,6.00
2019-02-18T22:41:30.727Z,6.00
2019-02-18T22:44:13.744Z,5.90
2019-02-18T22:46:56.682Z,5.90
2019-02-18T22:49:39.915Z,5.80
2019-02-18T22:52:22.801Z,5.80
2019-02-18T22:55:08.558Z,5.70
2019-02-18T22:57:51.613Z,5.70
2019-02-18T23:00:54.586Z,5.70
2019-02-18T23:03:27.235Z,5.70
2019-02-18T23:06:10.476Z,5.70
2019-02-18T23:08:54.673Z,5.70
2019-02-18T23:11:37.218Z,5.60
2019-02-18T23:14:21.168Z,5.70
2019-02-18T23:17:04.167Z,5.50
2019-02-18T23:19:47.878Z,5.40
2019-02-18T23:22:31.506Z,5.30
2019-02-18T23:25:14.275Z,5.40
2019-02-18T23:28:00.951Z,5.40
2019-02-18T23:30:43.644Z,5.10
2019-02-18T23:33:26.403Z,5.10
2019-02-18T23:36:10.753Z,5.00
2019-02-18T23:38:56.166Z,5.00
2019-02-18T23:41:39.211Z,5.00
2019-02-18T23:44:22.235Z,5.00
2019-02-18T23:47:04.854Z,4.90
2019-02-18T23:49:47.750Z,4.80
2019-02-18T23:52:31.258Z,4.80
2019-02-18T23:55:14.675Z,4.70
2019-02-18T23:57:57.377Z,4.60
